createdAt,value
2023-04-03T00:01:17.039Z,1.50
2023-04-03T00:03:44.252Z,1.50
2023-04-03T00:06:12.167Z,1.60
2023-04-03T00:08:39.414Z,1.50
2023-04-03T00:11:06.543Z,1.50
2023-04-03T00:13:33.682Z,1.40
2023-04-03T00:16:01.915Z,1.40
2023-04-03T00:18:28.689Z,1.30
2023-04-03T00:20:55.491Z,1.30
2023-04-03T00:23:22.523Z,1.30
2023-04-03T00:25:49.256Z,1.30
2023-04-03T00:28:16.382Z,1.30
2023-04-03T00:30:43.210Z,1.20
2023-04-03T00:33:12.487Z,1.30
2023-04-03T00:35:39.386Z,1.30
2023-04-03T00:38:06.176Z,1.30
2023-04-03T00:40:42.362Z,1.20
2023-04-03T00:43:23.074Z,1.20
2023-04-03T00:45:51.022Z,1.20
2023-04-03T00:48:26.952Z,1.20
2023-04-03T00:50:53.853Z,1.20
2023-04-03T00:53:23.930Z,1.10
2023-04-03T00:55:52.030Z,1.10
2023-04-03T00:58:21.510Z,1.10
2023-04-03T01:00:51.356Z,1.10
2023-04-03T01:03:18.079Z,1.00
2023-04-03T01:05:44.985Z,1.00
2023-04-03T01:08:12.197Z,1.10
2023-04-03T01:10:39.270Z,1.00
2023-04-03T01:13:26.631Z,1.00
2023-04-03T01:15:54.114Z,1.00
2023-04-03T01:18:26.849Z,1.00
2023-04-03T01:20:59.038Z,1.00
2023-04-03T01:23:28.969Z,1.00
2023-04-03T01:26:05.377Z,1.00
2023-04-03T01:28:34.175Z,1.10
2023-04-03T01:31:07.665Z,1.10
2023-04-03T01:33:36.567Z,1.00
2023-04-03T01:36:04.404Z,1.00
2023-04-03T01:38:32.267Z,1.00
2023-04-03T01:40:59.217Z,1.00
2023-04-03T01:43:26.247Z,1.00
2023-04-03T01:45:55.410Z,0.90
2023-04-03T01:48:22.608Z,0.80
2023-04-03T01:50:49.386Z,0.80
2023-04-03T01:53:19.435Z,0.80
2023-04-03T01:55:46.474Z,0.70
2023-04-03T01:58:13.282Z,0.80
2023-04-03T02:00:40.187Z,0.70
2023-04-03T02:03:07.931Z,0.70
2023-04-03T02:05:34.939Z,0.80
2023-04-03T02:08:02.085Z,0.80
2023-04-03T02:10:29.237Z,0.80
2023-04-03T02:12:57.135Z,0.80
2023-04-03T02:15:25.779Z,0.70
2023-04-03T02:17:53.079Z,0.70
2023-04-03T02:20:20.957Z,0.70
2023-04-03T02:22:51.124Z,0.70
2023-04-03T02:25:18.795Z,0.70
2023-04-03T02:27:45.622Z,0.70
2023-04-03T02:30:12.988Z,0.60
2023-04-03T02:32:39.784Z,0.60
2023-04-03T02:35:08.158Z,0.50
2023-04-03T02:37:35.769Z,0.50
2023-04-03T02:40:02.810Z,0.50
2023-04-03T02:42:29.662Z,0.50
2023-04-03T02:44:57.643Z,0.50
2023-04-03T02:47:26.247Z,0.60
2023-04-03T02:49:53.772Z,0.50
2023-04-03T02:52:21.097Z,0.50
2023-04-03T02:54:49.110Z,0.50
2023-04-03T02:57:16.167Z,0.40
2023-04-03T02:59:43.218Z,0.50
2023-04-03T03:02:11.744Z,0.50
2023-04-03T03:04:38.601Z,0.50
2023-04-03T03:07:05.442Z,0.50
2023-04-03T03:09:33.031Z,0.40
2023-04-03T03:11:59.840Z,0.40
2023-04-03T03:14:26.629Z,0.40
2023-04-03T03:16:53.554Z,0.40
2023-04-03T03:19:20.391Z,0.40
2023-04-03T03:21:47.227Z,0.50
2023-04-03T03:24:14.009Z,0.40
2023-04-03T03:26:40.919Z,0.40
2023-04-03T03:29:07.763Z,0.40
2023-04-03T03:31:34.547Z,0.40
2023-04-03T03:34:01.439Z,0.40
2023-04-03T03:36:28.267Z,0.40
2023-04-03T03:38:55.079Z,0.40
2023-04-03T03:41:22.352Z,0.30
2023-04-03T03:43:49.159Z,0.30
2023-04-03T03:46:17.150Z,0.30
2023-04-03T03:48:44.458Z,0.30
2023-04-03T03:51:11.452Z,0.30
2023-04-03T03:53:39.368Z,0.20
2023-04-03T03:56:09.563Z,0.20
2023-04-03T03:58:38.586Z,0.20
2023-04-03T04:01:06.713Z,0.20
2023-04-03T04:03:36.923Z,0.20
2023-04-03T04:06:04.414Z,0.20
2023-04-03T04:08:31.257Z,0.20
2023-04-03T04:10:58.800Z,0.20
2023-04-03T04:13:25.768Z,0.30
2023-04-03T04:15:52.709Z,0.20
2023-04-03T04:18:21.274Z,0.20
2023-04-03T04:20:49.452Z,0.10
2023-04-03T04:23:18.570Z,0.20
2023-04-03T04:25:46.628Z,0.10
2023-04-03T04:28:14.201Z,0.10
2023-04-03T04:30:41.828Z,0.10
2023-04-03T04:33:09.522Z,0.10
2023-04-03T04:35:37.842Z,0.10
2023-04-03T04:38:05.734Z,0.10
2023-04-03T04:40:32.765Z,0.10
2023-04-03T04:43:00.343Z,0.00
2023-04-03T04:45:27.214Z,0.00
2023-04-03T04:47:55.971Z,0.00
2023-04-03T04:50:24.274Z,0.00
2023-04-03T04:52:51.482Z,0.10
2023-04-03T04:55:20.493Z,0.00
2023-04-03T04:57:47.849Z,0.00
2023-04-03T05:00:16.267Z,0.00
2023-04-03T05:02:43.117Z,0.00
2023-04-03T05:05:10.505Z,0.00
2023-04-03T05:07:38.068Z,0.00
2023-04-03T05:10:05.672Z,0.00
2023-04-03T05:12:39.542Z,0.00
2023-04-03T05:16:01.018Z,0.00
2023-04-03T05:18:29.446Z,-0.10
2023-04-03T05:21:04.803Z,0.00
2023-04-03T05:23:38.034Z,0.00
2023-04-03T05:26:06.891Z,0.00
2023-04-03T05:28:39.672Z,0.00
2023-04-03T05:31:08.028Z,0.00
2023-04-03T05:33:37.750Z,-0.10
2023-04-03T05:36:07.800Z,-0.10
2023-04-03T05:38:40.346Z,-0.10
2023-04-03T05:41:08.671Z,-0.10
2023-04-03T05:43:38.701Z,-0.10
2023-04-03T05:46:16.406Z,-0.10
2023-04-03T05:48:45.814Z,-0.10
2023-04-03T05:51:18.360Z,-0.10
2023-04-03T05:53:47.796Z,-0.10
2023-04-03T05:56:15.407Z,0.00
2023-04-03T05:58:42.169Z,0.00
2023-04-03T06:01:12.660Z,0.10
2023-04-03T06:03:41.042Z,0.10
2023-04-03T06:06:12.935Z,0.10
2023-04-03T06:08:40.391Z,0.10
2023-04-03T06:11:07.751Z,0.20
2023-04-03T06:13:36.124Z,0.10
2023-04-03T06:16:03.585Z,0.20
2023-04-03T06:18:31.092Z,0.20
2023-04-03T06:20:59.194Z,0.20
2023-04-03T06:23:26.453Z,0.30
2023-04-03T06:25:53.276Z,0.30
2023-04-03T06:28:20.384Z,0.40
2023-04-03T06:30:47.427Z,0.40
2023-04-03T06:33:14.409Z,0.40
2023-04-03T06:35:41.841Z,0.50
2023-04-03T06:38:10.569Z,0.50
2023-04-03T06:40:37.925Z,0.70
2023-04-03T06:43:06.389Z,0.70
2023-04-03T06:45:33.304Z,0.80
2023-04-03T06:48:00.815Z,0.90
2023-04-03T06:50:27.611Z,1.00
2023-04-03T06:52:54.355Z,1.10
2023-04-03T06:55:21.538Z,1.20
2023-04-03T06:57:48.333Z,1.30
2023-04-03T07:00:15.632Z,1.30
2023-04-03T07:02:42.452Z,1.30
2023-04-03T07:05:09.993Z,1.40
2023-04-03T07:07:36.755Z,1.50
2023-04-03T07:10:03.824Z,1.60
2023-04-03T07:12:30.741Z,1.60
2023-04-03T07:14:57.586Z,1.70
2023-04-03T07:17:24.315Z,1.70
2023-04-03T07:19:51.122Z,1.80
2023-04-03T07:22:18.348Z,1.80
2023-04-03T07:24:45.401Z,1.90
2023-04-03T07:27:13.754Z,2.00
2023-04-03T07:29:40.695Z,2.00
2023-04-03T07:32:08.000Z,2.10
2023-04-03T07:34:35.028Z,2.20
2023-04-03T07:37:02.142Z,2.20
2023-04-03T07:39:29.312Z,2.30
2023-04-03T07:41:59.146Z,2.40
2023-04-03T07:44:27.345Z,2.40
2023-04-03T07:46:54.309Z,2.50
2023-04-03T07:49:21.194Z,2.60
2023-04-03T07:51:49.536Z,2.60
2023-04-03T07:54:16.499Z,2.70
2023-04-03T07:56:43.874Z,2.90
2023-04-03T07:59:11.465Z,2.90
2023-04-03T08:01:38.598Z,3.00
2023-04-03T08:04:05.521Z,3.10
2023-04-03T08:06:45.998Z,3.20
2023-04-03T08:09:15.367Z,3.20
2023-04-03T08:11:42.444Z,3.30
2023-04-03T08:14:09.164Z,3.40
2023-04-03T08:16:36.421Z,3.50
2023-04-03T08:19:03.886Z,3.60
2023-04-03T08:21:34.171Z,3.70
2023-04-03T08:24:01.007Z,3.70
2023-04-03T08:26:28.297Z,3.80
2023-04-03T08:28:55.321Z,3.90
2023-04-03T08:31:22.228Z,3.90
2023-04-03T08:33:50.165Z,4.00
2023-04-03T08:36:21.594Z,4.00
2023-04-03T08:38:48.879Z,4.00
2023-04-03T08:41:20.410Z,4.10
2023-04-03T08:43:50.402Z,4.10
2023-04-03T08:46:18.143Z,4.20
2023-04-03T08:48:45.378Z,4.20
2023-04-03T08:51:16.420Z,4.30
2023-04-03T08:53:45.528Z,4.30
2023-04-03T08:56:13.874Z,4.40
2023-04-03T08:58:48.929Z,4.60
2023-04-03T09:01:34.576Z,4.60
2023-04-03T09:04:02.324Z,4.70
2023-04-03T09:06:37.315Z,4.70
2023-04-03T09:09:08.043Z,4.70
2023-04-03T09:11:41.157Z,4.70
2023-04-03T09:14:08.024Z,4.80
2023-04-03T09:16:53.856Z,4.80
2023-04-03T09:19:33.280Z,4.90
2023-04-03T09:22:02.190Z,4.90
2023-04-03T09:24:29.463Z,4.90
2023-04-03T09:27:00.641Z,5.10
2023-04-03T09:29:27.526Z,5.10
2023-04-03T09:31:57.881Z,5.20
2023-04-03T09:34:27.393Z,5.30
2023-04-03T09:36:55.089Z,5.30
2023-04-03T09:39:33.581Z,5.30
2023-04-03T09:42:02.297Z,5.30
2023-04-03T09:44:37.017Z,5.30
2023-04-03T09:47:19.346Z,5.50
2023-04-03T09:49:46.675Z,5.50
2023-04-03T09:52:26.520Z,5.70
2023-04-03T09:54:53.866Z,5.90
2023-04-03T09:57:21.010Z,6.00
2023-04-03T09:59:57.134Z,6.10
2023-04-03T10:02:24.099Z,6.20
2023-04-03T10:05:06.361Z,6.30
2023-04-03T10:07:37.759Z,6.30
2023-04-03T10:10:26.641Z,6.30
2023-04-03T10:13:08.163Z,6.40
2023-04-03T10:15:38.300Z,6.50
2023-04-03T10:18:23.587Z,6.60
2023-04-03T10:20:53.314Z,6.60
2023-04-03T10:23:21.376Z,6.70
2023-04-03T10:25:55.372Z,6.70
2023-04-03T10:28:27.811Z,6.70
2023-04-03T10:31:00.975Z,6.80
2023-04-03T10:33:30.909Z,6.90
2023-04-03T10:36:03.895Z,6.90
2023-04-03T10:38:46.241Z,6.90
2023-04-03T10:41:31.827Z,6.90
2023-04-03T10:44:05.173Z,6.90
2023-04-03T10:46:42.224Z,6.80
2023-04-03T10:49:28.256Z,6.70
2023-04-03T10:52:05.976Z,6.70
2023-04-03T10:54:46.294Z,6.80
2023-04-03T10:57:14.032Z,6.90
2023-04-03T10:59:52.563Z,7.00
2023-04-03T11:02:30.819Z,7.10
2023-04-03T11:05:01.948Z,7.10
2023-04-03T11:07:32.742Z,7.20
2023-04-03T11:10:20.312Z,7.30
2023-04-03T11:12:49.778Z,7.30
2023-04-03T11:15:18.821Z,7.40
2023-04-03T11:18:24.290Z,7.40
2023-04-03T11:20:58.722Z,7.40
2023-04-03T11:23:35.589Z,7.40
2023-04-03T11:26:10.839Z,7.30
2023-04-03T11:28:38.154Z,7.20
2023-04-03T11:31:21.004Z,7.20
2023-04-03T11:34:06.652Z,7.20
2023-04-03T11:36:50.494Z,7.30
2023-04-03T11:39:26.732Z,7.40
2023-04-03T11:42:03.328Z,7.40
2023-04-03T11:44:39.339Z,7.40
2023-04-03T11:47:08.917Z,7.60
2023-04-03T11:49:57.619Z,7.70
2023-04-03T11:52:54.069Z,7.60
2023-04-03T11:55:21.269Z,7.70
2023-04-03T11:58:03.814Z,7.80
2023-04-03T12:01:01.671Z,7.70
2023-04-03T12:03:32.175Z,7.70
2023-04-03T12:06:08.399Z,7.80
2023-04-03T12:08:41.468Z,7.70
2023-04-03T12:11:14.678Z,7.80
2023-04-03T12:14:06.378Z,7.70
2023-04-03T12:16:33.262Z,7.70
2023-04-03T12:19:00.159Z,7.70
2023-04-03T12:21:27.276Z,7.70
2023-04-03T12:24:03.798Z,7.60
2023-04-03T12:26:48.756Z,7.70
2023-04-03T12:29:21.573Z,7.80
2023-04-03T12:31:54.247Z,7.80
2023-04-03T12:34:41.383Z,7.80
2023-04-03T12:37:21.055Z,7.80
2023-04-03T12:39:54.330Z,7.70
2023-04-03T12:42:31.141Z,7.60
2023-04-03T12:45:27.569Z,7.60
2023-04-03T12:47:56.134Z,7.60
2023-04-03T12:50:24.800Z,7.60
2023-04-03T12:53:15.582Z,7.70
2023-04-03T12:55:42.354Z,7.80
2023-04-03T12:58:17.743Z,7.80
2023-04-03T13:00:44.808Z,7.80
2023-04-03T13:03:23.956Z,7.80
2023-04-03T13:05:51.627Z,7.80
2023-04-03T13:08:20.569Z,7.80
2023-04-03T13:11:00.223Z,7.90
2023-04-03T13:13:27.422Z,8.00
2023-04-03T13:15:55.607Z,8.10
2023-04-03T13:18:33.491Z,8.00
2023-04-03T13:21:03.226Z,8.10
2023-04-03T13:23:30.995Z,8.10
2023-04-03T13:26:01.912Z,8.10
2023-04-03T13:28:28.981Z,7.80
2023-04-03T13:30:57.391Z,7.70
2023-04-03T13:33:28.573Z,7.60
2023-04-03T13:35:56.847Z,7.70
2023-04-03T13:38:25.700Z,7.80
2023-04-03T13:40:53.812Z,7.90
2023-04-03T13:43:22.356Z,7.90
2023-04-03T13:45:57.345Z,8.00
2023-04-03T13:48:24.978Z,8.00
2023-04-03T13:51:02.866Z,8.10
2023-04-03T13:53:30.950Z,8.00
2023-04-03T13:56:06.602Z,8.10
2023-04-03T13:58:34.102Z,8.10
2023-04-03T14:01:07.068Z,8.00
2023-04-03T14:03:54.199Z,8.00
2023-04-03T14:06:21.601Z,7.90
2023-04-03T14:08:49.903Z,7.90
2023-04-03T14:11:29.557Z,7.80
2023-04-03T14:14:01.968Z,7.90
2023-04-03T14:16:31.540Z,7.90
2023-04-03T14:18:58.539Z,7.90
2023-04-03T14:21:25.451Z,7.90
2023-04-03T14:23:52.334Z,7.90
2023-04-03T14:26:21.384Z,7.90
2023-04-03T14:28:49.608Z,8.00
2023-04-03T14:31:17.255Z,8.00
2023-04-03T14:33:44.272Z,8.00
2023-04-03T14:36:20.664Z,8.00
2023-04-03T14:38:48.853Z,8.00
2023-04-03T14:41:17.626Z,8.00
2023-04-03T14:43:45.447Z,8.00
2023-04-03T14:46:14.489Z,8.00
2023-04-03T14:48:42.478Z,8.10
2023-04-03T14:51:11.515Z,8.10
2023-04-03T14:53:39.564Z,8.10
2023-04-03T14:56:27.434Z,8.10
2023-04-03T14:58:59.434Z,8.20
2023-04-03T15:01:26.810Z,8.20
2023-04-03T15:03:53.631Z,8.20
2023-04-03T15:06:20.999Z,8.20
2023-04-03T15:08:48.377Z,8.20
2023-04-03T15:11:15.717Z,8.20
2023-04-03T15:13:42.511Z,8.20
2023-04-03T15:16:15.150Z,8.30
2023-04-03T15:18:41.961Z,8.30
2023-04-03T15:21:08.691Z,8.30
2023-04-03T15:23:35.537Z,8.20
2023-04-03T15:26:02.520Z,8.10
2023-04-03T15:28:31.152Z,8.00
2023-04-03T15:30:58.247Z,8.00
2023-04-03T15:33:25.301Z,8.00
2023-04-03T15:35:52.615Z,8.00
2023-04-03T15:38:19.605Z,8.00
2023-04-03T15:40:48.005Z,7.90
2023-04-03T15:43:15.008Z,7.90
2023-04-03T15:45:42.704Z,8.00
2023-04-03T15:48:10.292Z,8.00
2023-04-03T15:50:37.457Z,8.10
2023-04-03T15:53:04.445Z,8.00
2023-04-03T15:55:32.449Z,8.00
2023-04-03T15:57:59.801Z,7.90
2023-04-03T16:00:26.977Z,7.90
2023-04-03T16:02:56.412Z,7.90
2023-04-03T16:05:23.346Z,7.90
2023-04-03T16:07:50.351Z,7.80
2023-04-03T16:10:18.300Z,7.90
2023-04-03T16:12:46.383Z,7.90
2023-04-03T16:15:13.432Z,7.90
2023-04-03T16:17:41.769Z,7.80
2023-04-03T16:20:09.952Z,7.80
2023-04-03T16:22:36.850Z,7.80
2023-04-03T16:25:04.596Z,7.80
2023-04-03T16:27:31.919Z,7.70
2023-04-03T16:29:59.092Z,7.70
2023-04-03T16:32:28.730Z,7.70
2023-04-03T16:34:56.097Z,7.70
2023-04-03T16:37:23.110Z,7.70
2023-04-03T16:39:49.906Z,7.70
2023-04-03T16:42:16.698Z,7.70
2023-04-03T16:44:43.467Z,7.70
2023-04-03T16:47:10.681Z,7.70
2023-04-03T16:49:37.611Z,7.70
2023-04-03T16:52:05.179Z,7.70
2023-04-03T16:54:32.462Z,7.70
2023-04-03T16:56:59.275Z,7.70
2023-04-03T16:59:26.236Z,7.60
2023-04-03T17:01:53.174Z,7.60
2023-04-03T17:04:20.383Z,7.60
2023-04-03T17:06:47.170Z,7.50
2023-04-03T17:09:14.805Z,7.40
2023-04-03T17:15:22.080Z,7.30
2023-04-03T17:17:49.751Z,7.30
2023-04-03T17:20:16.718Z,7.30
2023-04-03T17:22:45.396Z,7.30
2023-04-03T17:25:12.270Z,7.30
2023-04-03T17:27:39.219Z,7.20
2023-04-03T17:30:06.605Z,7.20
2023-04-03T17:32:33.863Z,7.10
2023-04-03T17:35:00.957Z,7.10
2023-04-03T17:37:27.753Z,7.00
2023-04-03T17:39:54.725Z,7.00
2023-04-03T17:42:21.758Z,6.90
2023-04-03T17:44:49.704Z,6.90
2023-04-03T17:47:16.578Z,6.80
2023-04-03T17:49:43.359Z,6.70
2023-04-03T17:52:10.208Z,6.60
2023-04-03T17:54:37.212Z,6.50
2023-04-03T17:57:04.649Z,6.50
2023-04-03T17:59:32.066Z,6.60
2023-04-03T18:02:00.012Z,6.60
2023-04-03T18:04:29.028Z,6.60
2023-04-03T18:07:02.072Z,6.50
2023-04-03T18:09:31.124Z,6.40
2023-04-03T18:11:58.305Z,6.40
2023-04-03T18:14:26.935Z,6.30
2023-04-03T18:16:53.761Z,6.20
2023-04-03T18:19:23.805Z,6.20
2023-04-03T18:21:52.290Z,6.20
2023-04-03T18:31:33.108Z,6.20
2023-04-03T18:34:09.860Z,6.10
2023-04-03T18:36:41.377Z,6.00
2023-04-03T18:39:11.256Z,6.00
2023-04-03T18:41:45.186Z,5.90
2023-04-03T18:44:13.360Z,5.90
2023-04-03T18:46:40.675Z,5.80
2023-04-03T18:49:19.649Z,5.80
2023-04-03T18:56:09.384Z,5.70
2023-04-03T18:58:41.461Z,5.60
2023-04-03T19:01:09.178Z,5.60
2023-04-03T19:03:39.230Z,5.50
2023-04-03T19:06:06.736Z,5.50
2023-04-03T19:08:33.777Z,5.50
2023-04-03T19:11:02.889Z,5.40
2023-04-03T19:13:29.882Z,5.50
2023-04-03T19:16:00.846Z,5.40
2023-04-03T19:18:29.874Z,5.40
2023-04-03T19:20:57.098Z,5.30
2023-04-03T19:23:26.288Z,5.30
2023-04-03T19:26:00.109Z,5.20
2023-04-03T19:28:27.346Z,5.20
2023-04-03T19:30:54.161Z,5.10
2023-04-03T19:33:21.441Z,5.10
2023-04-03T19:35:49.529Z,5.00
2023-04-03T19:38:16.619Z,5.00
2023-04-03T19:40:44.103Z,4.90
2023-04-03T19:43:11.860Z,4.90
2023-04-03T19:45:39.152Z,4.80
2023-04-03T19:48:06.733Z,4.80
2023-04-03T19:50:37.596Z,4.80
2023-04-03T19:53:14.453Z,4.80
2023-04-03T19:55:41.539Z,4.70
2023-04-03T20:01:27.962Z,4.60
2023-04-03T20:03:57.999Z,4.50
2023-04-03T20:06:32.675Z,4.50
2023-04-03T20:08:59.637Z,4.40
2023-04-03T20:11:27.487Z,4.40
2023-04-03T20:13:59.119Z,4.30
2023-04-03T20:16:56.693Z,4.30
2023-04-03T20:19:27.078Z,4.20
2023-04-03T20:21:54.221Z,4.10
2023-04-03T20:24:29.385Z,4.10
2023-04-03T20:26:58.713Z,4.10
2023-04-03T20:29:47.911Z,4.00
2023-04-03T20:32:16.344Z,4.00
2023-04-03T20:34:44.351Z,4.00
2023-04-03T20:37:11.454Z,4.00
2023-04-03T20:39:38.432Z,3.90
2023-04-03T20:42:30.228Z,3.90
2023-04-03T20:44:59.948Z,3.80
2023-04-03T20:47:42.428Z,3.80
2023-04-03T20:50:12.248Z,3.70
2023-04-03T20:52:39.209Z,3.60
2023-04-03T20:55:06.741Z,3.60
2023-04-03T20:57:34.015Z,3.60
2023-04-03T21:00:04.510Z,3.50
2023-04-03T21:02:34.453Z,3.50
2023-04-03T21:05:01.486Z,3.40
2023-04-03T21:07:51.091Z,3.40
2023-04-03T21:10:37.272Z,3.30
2023-04-03T21:13:23.671Z,3.30
2023-04-03T21:15:54.750Z,3.30
2023-04-03T21:18:40.200Z,3.10
2023-04-03T21:21:16.677Z,3.10
2023-04-03T21:23:43.434Z,3.10
2023-04-03T21:26:10.778Z,3.00
2023-04-03T21:28:37.570Z,2.90
2023-04-03T21:31:15.290Z,2.90
2023-04-03T21:33:42.713Z,2.90
2023-04-03T21:36:10.368Z,2.90
2023-04-03T21:38:37.206Z,2.80
2023-04-03T21:41:03.936Z,2.70
2023-04-03T21:43:30.951Z,2.70
2023-04-03T21:45:58.671Z,2.60
2023-04-03T21:48:26.473Z,2.60
2023-04-03T21:50:53.690Z,2.50
2023-04-03T21:53:21.390Z,2.50
2023-04-03T21:55:54.981Z,2.50
2023-04-03T21:58:22.051Z,2.40
2023-04-03T22:00:48.963Z,2.40
2023-04-03T22:03:21.485Z,2.30
2023-04-03T22:05:48.318Z,2.30
2023-04-03T22:08:15.560Z,2.30
2023-04-03T22:10:42.491Z,2.20
2023-04-03T22:13:09.403Z,2.20
2023-04-03T22:15:42.499Z,2.20
2023-04-03T22:18:10.121Z,2.20
2023-04-03T22:20:36.889Z,2.20
2023-04-03T22:23:03.974Z,2.10
2023-04-03T22:25:41.524Z,2.00
2023-04-03T22:28:08.479Z,2.00
2023-04-03T22:30:36.037Z,1.90
2023-04-03T22:33:03.071Z,1.90
2023-04-03T22:35:29.927Z,1.80
2023-04-03T22:37:57.064Z,1.80
2023-04-03T22:40:23.904Z,1.80
2023-04-03T22:42:50.655Z,1.80
2023-04-03T22:45:18.056Z,1.80
2023-04-03T22:47:44.838Z,1.80
2023-04-03T22:50:11.739Z,1.70
2023-04-03T22:52:44.092Z,1.70
2023-04-03T22:55:19.146Z,1.70
2023-04-03T22:57:47.335Z,1.60
2023-04-03T23:00:17.488Z,1.60
2023-04-03T23:02:44.309Z,1.60
2023-04-03T23:05:11.129Z,1.60
2023-04-03T23:07:37.981Z,1.70
2023-04-03T23:10:05.198Z,1.60
2023-04-03T23:12:37.013Z,1.60
2023-04-03T23:15:05.073Z,1.60
2023-04-03T23:17:32.690Z,1.60
2023-04-03T23:19:59.480Z,1.60
2023-04-03T23:22:26.432Z,1.70
2023-04-03T23:24:53.246Z,1.60
2023-04-03T23:27:19.990Z,1.50
2023-04-03T23:29:47.389Z,1.50
2023-04-03T23:32:14.535Z,1.50
2023-04-03T23:34:41.387Z,1.50
2023-04-03T23:37:11.851Z,1.50
2023-04-03T23:39:38.651Z,1.50
2023-04-03T23:42:09.323Z,1.40
2023-04-03T23:44:36.922Z,1.30
2023-04-03T23:47:03.673Z,1.30
2023-04-03T23:49:30.798Z,1.30
2023-04-03T23:51:57.915Z,1.30
2023-04-03T23:54:24.703Z,1.30
2023-04-03T23:56:51.682Z,1.30
2023-04-03T23:59:18.481Z,1.20
